createdAt,value
2023-05-22T00:00:31.888Z,24.88
2023-05-22T00:02:38.674Z,24.90
2023-05-22T00:04:40.962Z,24.89
2023-05-22T00:06:43.094Z,24.87
2023-05-22T00:08:44.738Z,24.89
2023-05-22T00:10:46.241Z,24.91
2023-05-22T00:12:47.733Z,24.92
2023-05-22T00:14:49.300Z,24.91
2023-05-22T00:16:50.738Z,24.89
2023-05-22T00:18:52.356Z,24.90
2023-05-22T00:20:54.312Z,24.91
2023-05-22T00:22:56.855Z,24.89
2023-05-22T00:24:58.410Z,24.88
2023-05-22T00:27:00.032Z,24.85
2023-05-22T00:29:01.968Z,24.87
2023-05-22T00:31:03.720Z,24.88
2023-05-22T00:33:05.264Z,24.90
2023-05-22T00:35:07.111Z,24.88
2023-05-22T00:37:08.651Z,24.88
2023-05-22T00:39:10.226Z,24.86
2023-05-22T00:41:11.814Z,24.87
2023-05-22T00:43:13.341Z,24.89
2023-05-22T00:45:15.152Z,24.90
2023-05-22T00:47:16.645Z,24.88
2023-05-22T00:49:18.107Z,24.89
2023-05-22T00:51:22.778Z,24.90
2023-05-22T00:53:25.043Z,24.91
2023-05-22T00:55:26.638Z,24.88
2023-05-22T00:57:28.186Z,24.90
2023-05-22T00:59:29.825Z,24.88
2023-05-22T01:01:33.469Z,24.90
2023-05-22T01:03:47.841Z,24.90
2023-05-22T01:05:49.574Z,24.88
2023-05-22T01:07:51.671Z,24.89
2023-05-22T01:09:53.164Z,24.88
2023-05-22T01:12:06.669Z,24.83
2023-05-22T01:14:10.873Z,24.77
2023-05-22T01:16:19.002Z,24.82
2023-05-22T01:18:29.231Z,24.81
2023-05-22T01:20:48.847Z,24.85
2023-05-22T01:23:05.854Z,24.85
2023-05-22T01:25:28.984Z,24.87
2023-05-22T01:27:35.030Z,24.86
2023-05-22T01:29:42.254Z,24.85
2023-05-22T01:31:45.710Z,24.87
2023-05-22T01:33:48.929Z,24.86
2023-05-22T01:35:53.843Z,24.79
2023-05-22T01:37:56.557Z,24.84
2023-05-22T01:39:58.355Z,24.83
2023-05-22T01:42:00.300Z,24.73
2023-05-22T01:44:02.228Z,24.81
2023-05-22T01:46:04.888Z,24.81
2023-05-22T01:48:06.617Z,24.80
2023-05-22T01:50:08.834Z,24.80
2023-05-22T01:52:12.858Z,24.77
2023-05-22T01:54:30.322Z,24.73
2023-05-22T01:56:41.372Z,24.76
2023-05-22T01:58:58.261Z,24.78
2023-05-22T02:01:03.584Z,24.79
2023-05-22T02:03:08.103Z,24.79
2023-05-22T02:05:11.661Z,24.80
2023-05-22T02:07:14.460Z,24.79
2023-05-22T02:09:16.982Z,24.77
2023-05-22T02:11:20.065Z,24.78
2023-05-22T02:13:22.264Z,24.78
2023-05-22T02:15:24.071Z,24.77
2023-05-22T02:17:26.115Z,24.72
2023-05-22T02:19:28.110Z,24.76
2023-05-22T02:21:29.648Z,24.76
2023-05-22T02:23:31.160Z,24.77
2023-05-22T02:25:32.725Z,24.77
2023-05-22T02:27:34.318Z,24.76
2023-05-22T02:29:36.028Z,24.72
2023-05-22T02:31:37.815Z,24.73
2023-05-22T02:33:39.330Z,24.74
2023-05-22T02:35:40.946Z,24.70
2023-05-22T02:37:42.587Z,24.72
2023-05-22T02:39:44.171Z,24.74
2023-05-22T02:41:45.872Z,24.74
2023-05-22T02:43:47.364Z,24.72
2023-05-22T02:45:48.784Z,24.70
2023-05-22T02:47:50.496Z,24.72
2023-05-22T02:49:52.030Z,24.74
2023-05-22T02:51:53.530Z,24.72
2023-05-22T02:53:55.016Z,24.72
2023-05-22T02:55:58.896Z,24.73
2023-05-22T02:58:00.476Z,24.71
2023-05-22T03:00:02.125Z,24.72
2023-05-22T03:02:03.870Z,24.71
2023-05-22T03:04:06.661Z,24.70
2023-05-22T03:06:08.902Z,24.70
2023-05-22T03:08:11.066Z,24.71
2023-05-22T03:10:12.649Z,24.69
2023-05-22T03:12:14.092Z,24.69
2023-05-22T03:14:15.577Z,24.70
2023-05-22T03:16:17.138Z,24.70
2023-05-22T03:18:18.750Z,24.68
2023-05-22T03:20:20.303Z,24.68
2023-05-22T03:22:23.128Z,24.69
2023-05-22T03:24:24.648Z,24.68
2023-05-22T03:26:28.264Z,24.68
2023-05-22T03:28:29.799Z,24.68
2023-05-22T03:30:35.018Z,24.66
2023-05-22T03:32:37.863Z,24.67
2023-05-22T03:34:39.542Z,24.66
2023-05-22T03:36:41.303Z,24.66
2023-05-22T03:38:42.765Z,24.67
2023-05-22T03:40:44.237Z,24.66
2023-05-22T03:42:45.727Z,24.66
2023-05-22T03:44:47.280Z,24.66
2023-05-22T03:46:48.750Z,24.65
2023-05-22T03:48:50.311Z,24.64
2023-05-22T03:50:52.085Z,24.63
2023-05-22T03:52:53.816Z,24.63
2023-05-22T03:54:55.367Z,24.63
2023-05-22T03:56:56.916Z,24.62
2023-05-22T03:58:58.492Z,24.61
2023-05-22T04:01:01.155Z,24.60
2023-05-22T04:03:03.602Z,24.60
2023-05-22T04:05:09.285Z,24.58
2023-05-22T04:07:13.065Z,24.56
2023-05-22T04:09:15.091Z,24.54
2023-05-22T04:11:16.827Z,24.56
2023-05-22T04:13:18.462Z,24.58
2023-05-22T04:15:19.960Z,24.59
2023-05-22T04:17:21.475Z,24.59
2023-05-22T04:19:23.333Z,24.59
2023-05-22T04:21:24.809Z,24.59
2023-05-22T04:23:26.305Z,24.55
2023-05-22T04:25:27.899Z,24.54
2023-05-22T04:27:29.768Z,24.55
2023-05-22T04:29:31.212Z,24.56
2023-05-22T04:31:33.226Z,24.56
2023-05-22T04:33:34.867Z,24.55
2023-05-22T04:35:36.347Z,24.55
2023-05-22T04:37:38.477Z,24.56
2023-05-22T04:39:40.380Z,24.58
2023-05-22T04:41:41.959Z,24.56
2023-05-22T04:43:44.061Z,24.57
2023-05-22T04:45:46.294Z,24.58
2023-05-22T04:47:47.874Z,24.58
2023-05-22T04:49:49.538Z,24.58
2023-05-22T04:51:51.191Z,24.58
2023-05-22T04:53:52.784Z,24.56
2023-05-22T04:55:54.694Z,24.56
2023-05-22T04:57:56.355Z,24.56
2023-05-22T04:59:58.124Z,24.55
2023-05-22T05:01:59.637Z,24.55
2023-05-22T05:04:02.259Z,24.55
2023-05-22T05:06:03.989Z,24.55
2023-05-22T05:08:05.601Z,24.55
2023-05-22T05:10:07.526Z,24.55
2023-05-22T05:12:09.210Z,24.54
2023-05-22T05:14:10.719Z,24.54
2023-05-22T05:16:12.394Z,24.52
2023-05-22T05:18:14.152Z,24.52
2023-05-22T05:20:15.684Z,24.51
2023-05-22T05:22:17.202Z,24.53
2023-05-22T05:24:18.787Z,24.53
2023-05-22T05:26:21.833Z,24.49
2023-05-22T05:28:23.388Z,24.51
2023-05-22T05:30:24.860Z,24.52
2023-05-22T05:32:26.933Z,24.49
2023-05-22T05:34:28.510Z,24.48
2023-05-22T05:36:30.221Z,24.48
2023-05-22T05:38:31.757Z,24.46
2023-05-22T05:40:33.336Z,24.45
2023-05-22T05:42:34.751Z,24.42
2023-05-22T05:44:36.480Z,24.44
2023-05-22T05:46:37.959Z,24.42
2023-05-22T05:48:39.581Z,24.40
2023-05-22T05:50:41.492Z,24.43
2023-05-22T05:52:43.132Z,24.42
2023-05-22T05:54:47.440Z,24.41
2023-05-22T05:56:48.977Z,24.38
2023-05-22T05:58:50.612Z,24.37
2023-05-22T06:00:52.193Z,24.40
2023-05-22T06:02:53.760Z,24.40
2023-05-22T06:04:56.039Z,24.39
2023-05-22T06:06:57.531Z,24.38
2023-05-22T06:08:59.070Z,24.37
2023-05-22T06:11:01.133Z,24.38
2023-05-22T06:13:02.745Z,24.35
2023-05-22T06:15:05.469Z,24.34
2023-05-22T06:17:09.125Z,24.35
2023-05-22T06:19:10.839Z,24.36
2023-05-22T06:21:12.786Z,24.34
2023-05-22T06:23:14.276Z,24.36
2023-05-22T06:25:15.752Z,24.37
2023-05-22T06:27:17.408Z,24.38
2023-05-22T06:29:18.897Z,24.38
2023-05-22T06:31:21.683Z,24.39
2023-05-22T06:33:23.511Z,24.38
2023-05-22T06:35:25.425Z,24.37
2023-05-22T06:37:26.964Z,24.38
2023-05-22T06:39:29.844Z,24.40
2023-05-22T06:41:33.615Z,24.39
2023-05-22T06:43:35.809Z,24.38
2023-05-22T06:45:38.350Z,24.37
2023-05-22T06:47:39.877Z,24.40
2023-05-22T06:49:41.462Z,24.38
2023-05-22T06:51:43.264Z,24.39
2023-05-22T06:53:44.738Z,24.41
2023-05-22T06:55:46.219Z,24.43
2023-05-22T06:57:47.650Z,24.43
2023-05-22T06:59:49.240Z,24.42
2023-05-22T07:01:51.271Z,24.44
2023-05-22T07:03:57.486Z,24.44
2023-05-22T07:05:59.516Z,24.40
2023-05-22T07:08:01.608Z,24.41
2023-05-22T07:10:03.414Z,24.44
2023-05-22T07:12:05.534Z,24.46
2023-05-22T07:14:07.904Z,24.44
2023-05-22T07:16:12.431Z,24.44
2023-05-22T07:18:15.793Z,24.42
2023-05-22T07:20:17.745Z,24.43
2023-05-22T07:22:19.381Z,24.45
2023-05-22T07:24:20.833Z,24.45
2023-05-22T07:26:22.685Z,24.44
2023-05-22T07:28:24.227Z,24.40
2023-05-22T07:30:25.755Z,24.41
2023-05-22T07:32:27.275Z,24.38
2023-05-22T07:34:33.132Z,24.43
2023-05-22T07:36:34.887Z,24.41
2023-05-22T07:38:36.387Z,24.44
2023-05-22T07:40:38.161Z,24.44
2023-05-22T07:42:39.912Z,24.45
2023-05-22T07:44:41.386Z,24.45
2023-05-22T07:46:43.294Z,24.44
2023-05-22T07:48:44.977Z,24.43
2023-05-22T07:50:46.481Z,24.45
2023-05-22T07:52:47.920Z,24.48
2023-05-22T07:54:49.469Z,24.49
2023-05-22T07:56:51.910Z,24.50
2023-05-22T07:58:53.592Z,24.51
2023-05-22T08:00:55.902Z,24.53
2023-05-22T08:02:57.873Z,24.54
2023-05-22T08:04:59.677Z,24.56
2023-05-22T08:07:01.662Z,24.56
2023-05-22T08:09:04.686Z,24.56
2023-05-22T08:11:06.543Z,24.58
2023-05-22T08:13:08.701Z,24.60
2023-05-22T08:15:11.030Z,24.60
2023-05-22T08:17:13.096Z,24.63
2023-05-22T08:19:15.123Z,24.60
2023-05-22T08:21:16.773Z,24.62
2023-05-22T08:23:19.362Z,24.60
2023-05-22T08:25:21.260Z,24.59
2023-05-22T08:27:22.886Z,24.62
2023-05-22T08:29:24.566Z,24.62
2023-05-22T08:31:27.902Z,24.63
2023-05-22T08:33:29.507Z,24.63
2023-05-22T08:35:31.173Z,24.63
2023-05-22T08:37:32.745Z,24.66
2023-05-22T08:39:34.334Z,24.65
2023-05-22T08:41:35.871Z,24.66
2023-05-22T08:43:37.402Z,24.67
2023-05-22T08:45:42.539Z,24.65
2023-05-22T08:47:44.620Z,24.66
2023-05-22T08:49:50.478Z,24.68
2023-05-22T08:51:57.964Z,24.69
2023-05-22T08:54:01.026Z,24.68
2023-05-22T08:56:03.744Z,24.70
2023-05-22T08:58:05.692Z,24.64
2023-05-22T09:00:07.914Z,24.69
2023-05-22T09:02:09.906Z,24.70
2023-05-22T09:04:11.792Z,24.72
2023-05-22T09:06:13.345Z,24.76
2023-05-22T09:08:20.549Z,24.78
2023-05-22T09:10:22.796Z,24.79
2023-05-22T09:12:25.413Z,24.80
2023-05-22T09:14:26.877Z,24.80
2023-05-22T09:16:28.380Z,24.77
2023-05-22T09:18:30.250Z,24.79
2023-05-22T09:20:39.122Z,24.80
2023-05-22T09:22:40.990Z,24.83
2023-05-22T09:24:43.482Z,24.82
2023-05-22T09:26:45.074Z,24.83
2023-05-22T09:28:47.187Z,24.86
2023-05-22T09:30:52.399Z,24.85
2023-05-22T09:32:54.827Z,24.86
2023-05-22T09:35:02.342Z,24.87
2023-05-22T09:37:04.082Z,24.89
2023-05-22T09:39:05.650Z,24.92
2023-05-22T09:41:07.217Z,24.92
2023-05-22T09:43:12.161Z,24.93
2023-05-22T09:45:13.794Z,24.95
2023-05-22T09:47:15.644Z,24.95
2023-05-22T09:49:17.624Z,24.95
2023-05-22T09:51:26.481Z,24.96
2023-05-22T09:53:28.957Z,24.98
2023-05-22T09:55:32.096Z,24.98
2023-05-22T09:57:39.902Z,25.01
2023-05-22T09:59:42.937Z,25.00
2023-05-22T10:01:47.712Z,25.02
2023-05-22T10:03:53.013Z,25.03
2023-05-22T10:05:56.128Z,25.02
2023-05-22T10:08:02.343Z,25.04
2023-05-22T10:10:11.412Z,25.07
2023-05-22T10:12:16.379Z,25.08
2023-05-22T10:14:18.173Z,25.10
2023-05-22T10:16:20.218Z,25.09
2023-05-22T10:18:21.853Z,25.10
2023-05-22T10:20:24.246Z,25.12
2023-05-22T10:22:27.972Z,25.12
2023-05-22T10:24:29.902Z,25.13
2023-05-22T10:26:31.700Z,25.13
2023-05-22T10:28:38.405Z,25.11
2023-05-22T10:30:40.352Z,25.13
2023-05-22T10:32:45.563Z,25.11
2023-05-22T10:35:03.143Z,25.14
2023-05-22T10:37:18.423Z,25.16
2023-05-22T10:39:33.984Z,25.12
2023-05-22T10:41:35.627Z,25.11
2023-05-22T10:43:43.770Z,25.14
2023-05-22T10:45:46.636Z,25.14
2023-05-22T10:47:48.193Z,25.12
2023-05-22T10:49:51.197Z,25.16
2023-05-22T10:51:55.812Z,25.17
2023-05-22T10:54:05.467Z,25.17
2023-05-22T10:56:11.082Z,25.16
2023-05-22T10:58:12.957Z,25.18
2023-05-22T11:00:19.282Z,25.16
2023-05-22T11:02:21.821Z,25.17
2023-05-22T11:04:25.250Z,25.15
2023-05-22T11:06:45.976Z,25.15
2023-05-22T11:08:48.733Z,25.15
2023-05-22T11:10:54.332Z,25.17
2023-05-22T11:13:13.984Z,25.12
2023-05-22T11:15:15.934Z,25.14
2023-05-22T11:17:21.862Z,25.13
2023-05-22T11:19:24.208Z,25.16
2023-05-22T11:21:28.781Z,25.18
2023-05-22T11:23:33.393Z,25.24
2023-05-22T11:25:36.479Z,25.24
2023-05-22T11:27:39.343Z,25.18
2023-05-22T11:29:41.092Z,25.17
2023-05-22T11:31:42.874Z,25.12
2023-05-22T11:33:45.826Z,25.11
2023-05-22T11:35:48.068Z,25.16
2023-05-22T11:37:50.248Z,25.18
2023-05-22T11:39:55.918Z,25.19
2023-05-22T11:41:57.560Z,25.22
2023-05-22T11:43:59.502Z,25.21
2023-05-22T11:46:05.243Z,25.17
2023-05-22T11:48:08.288Z,25.18
2023-05-22T11:50:10.563Z,25.20
2023-05-22T11:52:12.079Z,25.25
2023-05-22T11:54:13.617Z,25.25
2023-05-22T11:56:15.372Z,25.25
2023-05-22T11:58:18.626Z,25.25
2023-05-22T12:00:20.374Z,25.24
2023-05-22T12:02:22.023Z,25.26
2023-05-22T12:04:23.683Z,25.26
2023-05-22T12:06:25.332Z,25.28
2023-05-22T12:08:27.068Z,25.32
2023-05-22T12:10:28.859Z,25.32
2023-05-22T12:12:30.514Z,25.29
2023-05-22T12:14:32.031Z,25.30
2023-05-22T12:16:36.882Z,25.33
2023-05-22T12:18:38.575Z,25.31
2023-05-22T12:20:43.780Z,25.23
2023-05-22T12:22:45.292Z,25.18
2023-05-22T12:24:46.833Z,25.15
2023-05-22T12:26:51.905Z,25.09
2023-05-22T12:28:53.820Z,25.10
2023-05-22T12:30:55.889Z,25.07
2023-05-22T12:32:57.933Z,25.04
2023-05-22T12:34:59.938Z,25.02
2023-05-22T12:37:01.819Z,25.02
2023-05-22T12:39:07.119Z,24.99
2023-05-22T12:41:08.599Z,24.97
2023-05-22T12:43:10.101Z,24.97
2023-05-22T12:45:12.284Z,24.96
2023-05-22T12:47:13.984Z,24.94
2023-05-22T12:49:15.693Z,24.93
2023-05-22T12:51:18.644Z,24.90
2023-05-22T12:53:21.575Z,24.91
2023-05-22T12:55:23.280Z,24.89
2023-05-22T12:57:24.842Z,24.91
2023-05-22T12:59:26.435Z,24.94
2023-05-22T13:01:28.118Z,24.91
2023-05-22T13:03:29.736Z,24.90
2023-05-22T13:05:31.275Z,24.88
2023-05-22T13:07:33.293Z,24.92
2023-05-22T13:09:34.960Z,24.92
2023-05-22T13:11:37.017Z,24.91
2023-05-22T13:13:38.784Z,24.90
2023-05-22T13:15:40.729Z,24.88
2023-05-22T13:17:42.850Z,24.88
2023-05-22T13:19:44.480Z,24.90
2023-05-22T13:21:45.952Z,24.91
2023-05-22T13:23:47.461Z,24.95
2023-05-22T13:25:49.050Z,24.91
2023-05-22T13:27:50.592Z,24.92
2023-05-22T13:29:52.383Z,24.93
2023-05-22T13:31:53.878Z,24.88
2023-05-22T13:33:55.497Z,24.90
2023-05-22T13:35:56.955Z,24.91
2023-05-22T13:37:58.522Z,24.89
2023-05-22T13:40:00.028Z,24.83
2023-05-22T13:42:01.711Z,24.78
2023-05-22T13:44:03.245Z,24.81
2023-05-22T13:46:04.921Z,24.82
2023-05-22T13:48:06.434Z,24.82
2023-05-22T13:50:08.364Z,24.80
2023-05-22T13:52:09.873Z,24.79
2023-05-22T13:54:11.586Z,24.83
2023-05-22T13:56:13.304Z,24.79
2023-05-22T13:58:14.771Z,24.78
2023-05-22T14:00:16.592Z,24.74
2023-05-22T14:02:20.567Z,24.75
2023-05-22T14:04:22.454Z,24.74
2023-05-22T14:06:24.640Z,24.72
2023-05-22T14:08:26.232Z,24.75
2023-05-22T14:10:27.722Z,24.75
2023-05-22T14:12:29.285Z,24.74
2023-05-22T14:14:30.821Z,24.72
2023-05-22T14:16:32.431Z,24.74
2023-05-22T14:18:33.939Z,24.69
2023-05-22T14:20:35.466Z,24.68
2023-05-22T14:22:47.993Z,24.69
2023-05-22T14:24:57.786Z,24.69
2023-05-22T14:26:59.487Z,24.71
2023-05-22T14:29:01.200Z,24.68
2023-05-22T14:31:02.816Z,24.71
2023-05-22T14:33:04.697Z,24.70
2023-05-22T14:35:06.523Z,24.72
2023-05-22T14:37:08.085Z,24.73
2023-05-22T14:39:12.622Z,24.71
2023-05-22T14:41:14.140Z,24.70
2023-05-22T14:43:15.756Z,24.69
2023-05-22T14:45:17.252Z,24.68
2023-05-22T14:47:18.757Z,24.67
2023-05-22T14:49:20.346Z,24.71
2023-05-22T14:51:22.012Z,24.71
2023-05-22T14:53:23.590Z,24.70
2023-05-22T14:55:27.693Z,24.71
2023-05-22T14:57:29.565Z,24.73
2023-05-22T14:59:31.732Z,24.72
2023-05-22T15:01:33.328Z,24.72
2023-05-22T15:03:34.963Z,24.71
2023-05-22T15:05:36.415Z,24.72
2023-05-22T15:09:42.627Z,24.73
2023-05-22T15:11:46.800Z,24.70
2023-05-22T15:13:48.789Z,24.71
2023-05-22T15:15:50.389Z,24.69
2023-05-22T15:17:51.924Z,24.70
2023-05-22T15:19:53.409Z,24.68
2023-05-22T15:21:57.307Z,24.68
2023-05-22T15:24:02.301Z,24.66
2023-05-22T15:26:04.022Z,24.68
2023-05-22T15:28:08.332Z,24.70
2023-05-22T15:30:10.274Z,24.71
2023-05-22T15:32:11.976Z,24.71
2023-05-22T15:34:13.551Z,24.70
2023-05-22T15:36:15.105Z,24.68
2023-05-22T15:38:16.652Z,24.70
2023-05-22T15:40:22.400Z,24.72
2023-05-22T15:42:24.611Z,24.74
2023-05-22T15:44:26.406Z,24.72
2023-05-22T15:46:28.054Z,24.68
2023-05-22T15:48:32.261Z,24.66
2023-05-22T15:50:34.369Z,24.65
2023-05-22T15:52:36.231Z,24.64
2023-05-22T15:54:37.858Z,24.57
2023-05-22T15:56:39.753Z,24.65
2023-05-22T15:58:41.249Z,24.63
2023-05-22T16:00:42.941Z,24.63
2023-05-22T16:02:44.636Z,24.64
2023-05-22T16:04:46.268Z,24.62
2023-05-22T16:06:47.896Z,24.63
2023-05-22T16:08:49.431Z,24.62
2023-05-22T16:10:50.984Z,24.61
2023-05-22T16:12:52.581Z,24.62
2023-05-22T16:14:59.975Z,24.58
2023-05-22T16:17:02.167Z,24.59
2023-05-22T16:19:03.808Z,24.58
2023-05-22T16:21:05.656Z,24.56
2023-05-22T16:23:07.320Z,24.55
2023-05-22T16:25:09.134Z,24.53
2023-05-22T16:27:10.746Z,24.55
2023-05-22T16:29:12.289Z,24.57
2023-05-22T16:31:18.957Z,24.54
2023-05-22T16:33:20.965Z,24.55
2023-05-22T16:35:22.582Z,24.54
2023-05-22T16:37:24.478Z,24.54
2023-05-22T16:39:26.981Z,24.52
2023-05-22T16:41:28.501Z,24.53
2023-05-22T16:43:30.034Z,24.50
2023-05-22T16:45:31.604Z,24.50
2023-05-22T16:47:33.283Z,24.51
2023-05-22T16:49:34.900Z,24.49
2023-05-22T16:51:36.484Z,24.49
2023-05-22T16:53:38.633Z,24.49
2023-05-22T16:55:40.506Z,24.42
2023-05-22T16:57:43.211Z,24.43
2023-05-22T16:59:44.802Z,24.43
2023-05-22T17:01:46.895Z,24.42
2023-05-22T17:03:48.474Z,24.43
2023-05-22T17:05:51.837Z,24.41
2023-05-22T17:07:53.330Z,24.43
2023-05-22T17:09:54.809Z,24.40
2023-05-22T17:11:56.354Z,24.41
2023-05-22T17:13:57.916Z,24.40
2023-05-22T17:15:59.528Z,24.44
2023-05-22T17:18:01.234Z,24.44
2023-05-22T17:20:06.077Z,24.43
2023-05-22T17:22:07.744Z,24.44
2023-05-22T17:24:12.641Z,24.47
2023-05-22T17:26:15.594Z,24.50
2023-05-22T17:28:17.411Z,24.53
2023-05-22T17:30:18.948Z,24.52
2023-05-22T17:32:20.541Z,24.55
2023-05-22T17:34:22.526Z,24.55
2023-05-22T17:36:24.137Z,24.58
2023-05-22T17:38:25.778Z,24.54
2023-05-22T17:40:40.550Z,24.50
2023-05-22T17:42:46.674Z,24.52
2023-05-22T17:44:48.419Z,24.56
2023-05-22T17:46:49.893Z,24.57
2023-05-22T17:48:55.221Z,24.59
2023-05-22T17:50:56.800Z,24.60
2023-05-22T17:52:58.600Z,24.62
2023-05-22T17:55:00.246Z,24.60
2023-05-22T17:57:04.186Z,24.63
2023-05-22T17:59:06.967Z,24.65
2023-05-22T18:01:08.641Z,24.67
2023-05-22T18:03:10.274Z,24.65
2023-05-22T18:05:11.973Z,24.65
2023-05-22T18:07:13.626Z,24.68
2023-05-22T18:09:15.150Z,24.69
2023-05-22T18:11:16.682Z,24.67
2023-05-22T18:13:19.611Z,24.68
2023-05-22T18:15:21.193Z,24.67
2023-05-22T18:17:23.227Z,24.68
2023-05-22T18:19:24.807Z,24.61
2023-05-22T18:21:26.549Z,24.59
2023-05-22T18:23:28.233Z,24.47
2023-05-22T18:25:29.691Z,24.41
2023-05-22T18:27:31.450Z,24.45
2023-05-22T18:29:33.068Z,24.51
2023-05-22T18:31:34.634Z,24.44
2023-05-22T18:33:36.142Z,24.38
2023-05-22T18:35:38.080Z,24.37
2023-05-22T18:37:39.532Z,24.35
2023-05-22T18:39:41.145Z,24.36
2023-05-22T18:41:42.606Z,24.36
2023-05-22T18:43:44.134Z,24.36
2023-05-22T18:45:45.673Z,24.38
2023-05-22T18:47:47.382Z,24.37
2023-05-22T18:49:49.009Z,24.38
2023-05-22T18:51:50.883Z,24.40
2023-05-22T18:53:52.399Z,24.44
2023-05-22T18:55:54.261Z,24.40
2023-05-22T18:57:56.025Z,24.36
2023-05-22T18:59:57.824Z,24.34
2023-05-22T19:01:59.298Z,24.31
2023-05-22T19:04:01.006Z,24.21
2023-05-22T19:06:02.651Z,24.33
2023-05-22T19:08:04.799Z,24.32
2023-05-22T19:10:08.090Z,24.32
2023-05-22T19:12:09.883Z,24.30
2023-05-22T19:14:11.756Z,24.26
2023-05-22T19:16:13.679Z,24.23
2023-05-22T19:18:15.899Z,24.20
2023-05-22T19:20:17.465Z,24.19
2023-05-22T19:22:18.905Z,24.15
2023-05-22T19:24:20.765Z,24.15
2023-05-22T19:26:22.344Z,24.15
2023-05-22T19:28:24.582Z,24.14
2023-05-22T19:30:26.164Z,24.13
2023-05-22T19:32:27.728Z,24.03
2023-05-22T19:34:29.217Z,23.97
2023-05-22T19:36:31.460Z,23.97
2023-05-22T19:38:33.085Z,23.99
2023-05-22T19:40:34.726Z,24.00
2023-05-22T19:42:37.154Z,24.00
2023-05-22T19:44:38.594Z,23.99
2023-05-22T19:46:40.291Z,23.98
2023-05-22T19:48:41.822Z,23.99
2023-05-22T19:50:43.490Z,23.99
2023-05-22T19:52:45.277Z,24.00
2023-05-22T19:54:46.792Z,23.95
2023-05-22T19:56:48.278Z,23.93
2023-05-22T19:58:49.946Z,23.92
2023-05-22T20:00:51.739Z,23.92
2023-05-22T20:02:53.516Z,23.93
2023-05-22T20:04:55.181Z,23.94
2023-05-22T20:06:58.668Z,23.91
2023-05-22T20:09:01.625Z,23.93
2023-05-22T20:11:03.244Z,23.92
2023-05-22T20:13:05.196Z,23.91
2023-05-22T20:15:06.998Z,23.92
2023-05-22T20:17:08.488Z,23.91
2023-05-22T20:19:10.375Z,23.92
2023-05-22T20:21:12.035Z,23.91
2023-05-22T20:23:13.509Z,23.90
2023-05-22T20:25:15.052Z,23.90
2023-05-22T20:27:16.760Z,23.90
2023-05-22T20:29:18.385Z,23.89
2023-05-22T20:31:19.974Z,23.89
2023-05-22T20:33:21.541Z,23.91
2023-05-22T20:35:23.175Z,23.92
2023-05-22T20:37:24.729Z,23.93
2023-05-22T20:39:26.656Z,23.91
2023-05-22T20:41:28.461Z,23.92
2023-05-22T20:43:30.754Z,23.92
2023-05-22T20:45:32.535Z,23.93
2023-05-22T20:47:34.662Z,23.93
2023-05-22T20:49:36.165Z,23.93
2023-05-22T20:51:37.917Z,23.90
2023-05-22T20:53:39.409Z,23.91
2023-05-22T20:55:41.200Z,23.91
2023-05-22T20:57:43.143Z,23.91
2023-05-22T20:59:44.686Z,23.90
2023-05-22T21:01:46.480Z,23.98
2023-05-22T21:03:49.856Z,24.07
2023-05-22T21:05:51.387Z,24.18
2023-05-22T21:07:52.835Z,24.24
2023-05-22T21:09:54.512Z,24.33
2023-05-22T21:11:56.076Z,24.40
2023-05-22T21:13:58.083Z,24.47
2023-05-22T21:15:59.553Z,24.53
2023-05-22T21:18:01.083Z,24.57
2023-05-22T21:20:04.271Z,24.62
2023-05-22T21:22:05.735Z,24.65
2023-05-22T21:24:08.710Z,24.69
2023-05-22T21:26:10.366Z,24.71
2023-05-22T21:28:12.105Z,24.73
2023-05-22T21:30:14.933Z,24.77
2023-05-22T21:32:16.348Z,24.81
2023-05-22T21:34:17.994Z,24.84
2023-05-22T21:36:19.630Z,24.88
2023-05-22T21:38:21.104Z,24.92
2023-05-22T21:40:22.882Z,24.96
2023-05-22T21:42:26.185Z,24.98
2023-05-22T21:44:27.824Z,25.01
2023-05-22T21:46:29.455Z,25.04
2023-05-22T21:48:30.968Z,25.09
2023-05-22T21:50:32.601Z,25.10
2023-05-22T21:52:34.030Z,25.11
2023-05-22T21:54:35.484Z,25.14
2023-05-22T21:56:38.495Z,25.15
2023-05-22T21:58:40.950Z,25.18
2023-05-22T22:00:42.544Z,25.19
2023-05-22T22:02:44.101Z,25.21
2023-05-22T22:04:45.849Z,25.26
2023-05-22T22:06:47.334Z,25.27
2023-05-22T22:08:49.013Z,25.30
2023-05-22T22:10:50.789Z,25.31
2023-05-22T22:12:52.304Z,25.33
2023-05-22T22:14:53.906Z,25.34
2023-05-22T22:16:56.350Z,25.36
2023-05-22T22:18:58.014Z,25.38
2023-05-22T22:21:02.027Z,25.40
2023-05-22T22:23:03.559Z,25.41
2023-05-22T22:25:05.425Z,25.42
2023-05-22T22:27:07.173Z,25.43
2023-05-22T22:29:08.735Z,25.45
2023-05-22T22:31:10.349Z,25.47
2023-05-22T22:33:11.989Z,25.49
2023-05-22T22:35:13.549Z,25.51
2023-05-22T22:37:15.073Z,25.52
2023-05-22T22:39:16.751Z,25.55
2023-05-22T22:41:18.438Z,25.56
2023-05-22T22:43:19.995Z,25.57
2023-05-22T22:45:21.536Z,25.59
2023-05-22T22:47:23.170Z,25.59
2023-05-22T22:49:24.612Z,25.61
2023-05-22T22:51:26.677Z,25.62
2023-05-22T22:53:28.521Z,25.62
2023-05-22T22:55:30.078Z,25.63
2023-05-22T22:57:31.745Z,25.64
2023-05-22T22:59:35.379Z,25.67
2023-05-22T23:01:37.067Z,25.68
2023-05-22T23:03:38.576Z,25.69
2023-05-22T23:05:40.402Z,25.72
2023-05-22T23:07:44.280Z,25.73
2023-05-22T23:09:45.820Z,25.76
2023-05-22T23:11:48.727Z,25.76
2023-05-22T23:13:50.539Z,25.77
2023-05-22T23:15:52.199Z,25.77
2023-05-22T23:17:53.691Z,25.79
2023-05-22T23:19:55.208Z,25.79
2023-05-22T23:21:56.810Z,25.80
2023-05-22T23:24:00.158Z,25.81
2023-05-22T23:26:01.715Z,25.82
2023-05-22T23:28:03.255Z,25.83
2023-05-22T23:30:05.376Z,25.84
2023-05-22T23:32:07.246Z,25.87
2023-05-22T23:34:09.343Z,25.89
2023-05-22T23:36:10.910Z,25.89
2023-05-22T23:38:12.553Z,25.91
2023-05-22T23:40:14.050Z,25.90
2023-05-22T23:42:16.856Z,25.91
2023-05-22T23:44:18.394Z,25.92
2023-05-22T23:46:21.224Z,25.92
2023-05-22T23:48:22.848Z,25.92
2023-05-22T23:50:24.336Z,25.93
2023-05-22T23:52:26.491Z,25.94
2023-05-22T23:54:28.089Z,25.94
2023-05-22T23:56:29.624Z,25.95
2023-05-22T23:58:32.243Z,25.95
